Time;durP1;ratioP1;P1;durP2;ratioP2;P2;SDS_P1;SDS_P2;PMS_P1;PMS_P2;Temp;Humidity;BMP_temperature;BMP_pressure;BME280_temperature;BME280_humidity;BME280_pressure;Samples;Min_cycle;Max_cycle;Signal;HPM_P1;HPM_P2
2022/10/02 00:01:43;;;;;;;6.90;4.13;;;11.50;99.90;;;;;;10457348;28;20197;-86
2022/10/02 00:07:08;;;;;;;5.63;3.83;;;11.60;99.90;;;;;;10475103;28;20559;-85
2022/10/02 00:12:30;;;;;;;6.97;4.07;;;11.50;99.90;;;;;;10445906;28;20255;-84
2022/10/02 00:17:56;;;;;;;7.60;4.53;;;11.50;99.90;;;;;;10429275;28;20229;-86
2022/10/02 00:23:26;;;;;;;7.93;3.97;;;11.50;99.90;;;;;;10414926;28;20211;-86
2022/10/02 00:28:56;;;;;;;8.23;4.33;;;11.60;99.90;;;;;;10468903;28;20503;-85
2022/10/02 00:34:40;;;;;;;7.97;4.63;;;11.50;99.90;;;;;;10455627;28;20190;-86
2022/10/02 00:40:28;;;;;;;6.93;4.10;;;11.50;99.90;;;;;;10464314;28;20257;-85
2022/10/02 00:45:52;;;;;;;6.97;4.03;;;11.50;99.90;;;;;;10450299;28;20487;-86
2022/10/02 00:51:44;;;;;;;3.80;2.67;;;11.50;99.90;;;;;;10494928;28;20303;-86
2022/10/02 00:57:35;;;;;;;6.10;4.13;;;11.50;99.90;;;;;;10449873;28;20234;-86
2022/10/02 01:03:09;;;;;;;5.33;4.00;;;11.60;99.90;;;;;;10463324;28;20288;-85
2022/10/02 01:08:31;;;;;;;5.53;3.60;;;11.50;99.90;;;;;;10450018;28;20212;-85
2022/10/02 01:13:53;;;;;;;5.93;3.70;;;11.50;99.90;;;;;;10466534;28;20493;-86
2022/10/02 01:19:34;;;;;;;6.50;3.63;;;11.50;99.90;;;;;;10467941;28;20243;-86
2022/10/02 01:24:57;;;;;;;6.13;3.60;;;11.50;99.90;;;;;;10454404;28;20193;-86
2022/10/02 01:30:20;;;;;;;6.40;3.43;;;11.50;99.90;;;;;;10415386;28;20231;-85
2022/10/02 01:35:42;;;;;;;6.00;4.20;;;11.50;99.90;;;;;;10454622;28;20384;-84
2022/10/02 01:41:06;;;;;;;7.03;3.40;;;11.50;99.90;;;;;;10440032;28;20201;-85
2022/10/02 01:46:39;;;;;;;4.83;3.30;;;11.50;99.90;;;;;;10439510;28;20259;-85
2022/10/02 01:52:41;;;;;;;6.53;3.40;;;11.60;99.90;;;;;;10438751;28;20276;-85
2022/10/02 01:58:16;;;;;;;5.97;3.40;;;11.50;99.90;;;;;;10463077;28;20266;-86
2022/10/02 02:04:11;;;;;;;7.00;3.70;;;11.50;99.90;;;;;;10466311;28;20208;-86
2022/10/02 02:10:08;;;;;;;10.13;4.60;;;11.50;99.90;;;;;;10439344;28;20231;-85
2022/10/02 02:16:05;;;;;;;6.77;3.30;;;11.40;99.90;;;;;;10395727;28;20210;-86
2022/10/02 02:21:35;;;;;;;5.20;2.43;;;11.40;99.90;;;;;;10420326;28;20234;-85
2022/10/02 02:26:59;;;;;;;5.40;2.87;;;11.40;99.90;;;;;;10427049;28;20209;-86
2022/10/02 02:32:26;;;;;;;6.20;2.90;;;11.40;99.90;;;;;;10421828;28;20497;-86
2022/10/02 02:37:51;;;;;;;5.17;2.87;;;11.40;99.90;;;;;;10405034;28;20226;-85
2022/10/02 02:43:26;;;;;;;5.33;2.20;;;11.50;99.90;;;;;;10405140;28;20212;-85
2022/10/02 02:48:58;;;;;;;4.60;2.60;;;11.50;99.90;;;;;;10465180;28;20277;-86
2022/10/02 02:54:36;;;;;;;5.97;3.03;;;11.50;99.90;;;;;;10478815;28;20197;-85
2022/10/02 03:00:00;;;;;;;4.57;2.40;;;11.50;99.90;;;;;;10449536;28;20217;-85
2022/10/02 03:05:23;;;;;;;4.77;2.60;;;11.50;99.90;;;;;;10474271;28;20200;-85
2022/10/02 03:11:16;;;;;;;2.83;1.77;;;11.50;99.90;;;;;;10478233;28;20199;-85
2022/10/02 03:16:59;;;;;;;6.23;2.17;;;11.50;99.90;;;;;;10474625;28;20236;-85
2022/10/02 03:22:29;;;;;;;4.13;2.03;;;11.60;99.90;;;;;;10463899;28;20205;-86
2022/10/02 03:28:09;;;;;;;7.40;2.10;;;11.50;99.90;;;;;;10463598;28;20273;-86
2022/10/02 03:33:34;;;;;;;6.60;2.10;;;11.60;99.90;;;;;;10477962;28;20376;-86
2022/10/02 03:38:59;;;;;;;8.90;1.87;;;11.60;99.90;;;;;;10463540;28;20473;-86
2022/10/02 03:44:41;;;;;;;5.03;1.87;;;11.60;99.90;;;;;;10463103;28;20492;-86
2022/10/02 03:50:02;;;;;;;3.20;1.90;;;11.60;99.90;;;;;;10435887;28;20218;-86
2022/10/02 03:55:37;;;;;;;7.37;2.20;;;11.60;99.90;;;;;;10421894;28;20231;-86
2022/10/02 04:01:11;;;;;;;7.50;1.97;;;11.60;99.90;;;;;;10408082;28;20232;-86
2022/10/02 04:06:59;;;;;;;9.10;3.63;;;11.60;99.90;;;;;;10443060;28;20224;-86
2022/10/02 04:12:31;;;;;;;7.17;2.23;;;11.60;99.90;;;;;;10443580;28;20208;-86
2022/10/02 04:18:05;;;;;;;4.83;2.23;;;11.60;99.90;;;;;;10483796;28;20262;-85
2022/10/02 04:23:30;;;;;;;10.33;2.80;;;11.50;99.90;;;;;;10484557;28;20379;-86
2022/10/02 04:28:58;;;;;;;11.20;3.00;;;11.50;99.90;;;;;;10470796;28;20220;-86
2022/10/02 04:34:19;;;;;;;12.40;3.73;;;11.50;99.90;;;;;;10469977;28;20210;-85
2022/10/02 04:39:47;;;;;;;11.57;2.57;;;11.50;99.90;;;;;;10483770;28;20229;-85
2022/10/02 04:45:52;;;;;;;9.53;2.13;;;11.50;99.90;;;;;;10468650;28;20246;-86
2022/10/02 04:51:48;;;;;;;6.63;2.20;;;11.40;99.90;;;;;;10491691;28;20208;-85
2022/10/02 04:57:38;;;;;;;10.93;2.07;;;11.50;99.90;;;;;;10505435;28;20230;-85
2022/10/02 05:03:31;;;;;;;10.20;2.37;;;11.50;99.90;;;;;;10491040;28;20200;-85
2022/10/02 05:09:15;;;;;;;7.03;2.13;;;11.40;99.90;;;;;;10507362;28;20216;-85
2022/10/02 05:15:03;;;;;;;12.37;2.57;;;11.30;99.90;;;;;;10504922;28;20489;-85
2022/10/02 05:20:49;;;;;;;7.30;2.33;;;11.30;99.90;;;;;;10463039;28;20571;-85
2022/10/02 05:26:38;;;;;;;9.57;2.37;;;11.30;99.90;;;;;;10460445;28;20201;-85
2022/10/02 05:32:21;;;;;;;8.43;2.00;;;11.40;99.90;;;;;;10474651;28;20203;-86
2022/10/02 05:38:21;;;;;;;11.57;2.27;;;11.40;99.90;;;;;;10482278;28;20269;-85
2022/10/02 05:43:50;;;;;;;8.97;1.87;;;11.40;99.90;;;;;;10467284;28;20198;-85
2022/10/02 05:49:21;;;;;;;7.23;1.50;;;11.40;99.90;;;;;;10480834;28;20248;-86
2022/10/02 05:54:58;;;;;;;9.83;1.70;;;11.50;99.90;;;;;;10481213;28;20187;-85
2022/10/02 06:00:45;;;;;;;9.00;2.30;;;11.60;99.90;;;;;;10480888;28;20233;-86
2022/10/02 06:06:40;;;;;;;12.03;2.07;;;11.70;99.90;;;;;;10483079;28;20200;-85
2022/10/02 06:12:13;;;;;;;10.37;2.50;;;11.80;99.90;;;;;;10467882;28;20203;-86
2022/10/02 06:17:46;;;;;;;8.43;1.83;;;11.70;99.90;;;;;;10450194;28;20254;-86
2022/10/02 06:23:19;;;;;;;25.53;12.33;;;11.70;99.90;;;;;;10465801;28;20538;-85
2022/10/02 06:28:50;;;;;;;16.60;5.30;;;11.70;99.90;;;;;;10479586;28;20469;-85
2022/10/02 06:34:13;;;;;;;14.30;3.30;;;11.90;99.90;;;;;;10465145;28;20223;-86
2022/10/02 06:39:40;;;;;;;10.17;2.70;;;12.00;86.50;;;;;;10464887;28;20224;-85
2022/10/02 06:45:23;;;;;;;10.77;2.70;;;12.00;77.70;;;;;;10450886;28;20242;-86
2022/10/02 06:50:47;;;;;;;10.17;3.07;;;12.00;80.90;;;;;;10451492;28;20201;-85
2022/10/02 06:56:31;;;;;;;6.83;2.40;;;12.20;6.00;;;;;;10451418;28;20197;-85
2022/10/02 07:01:58;;;;;;;10.53;2.57;;;12.20;11.30;;;;;;10489236;28;20262;-85
2022/10/02 07:07:25;;;;;;;16.60;3.43;;;12.10;24.80;;;;;;10463898;28;20194;-86
2022/10/02 07:13:01;;;;;;;9.10;2.27;;;12.10;18.40;;;;;;10467692;28;20396;-86
2022/10/02 07:18:33;;;;;;;7.87;3.00;;;12.30;3.60;;;;;;10438413;28;20515;-85
2022/10/02 07:24:03;;;;;;;7.27;2.20;;;12.40;18.80;;;;;;10409360;28;20501;-85
2022/10/02 07:29:36;;;;;;;9.17;2.60;;;12.40;1.00;;;;;;10422773;28;20280;-86
2022/10/02 07:35:15;;;;;;;12.73;3.73;;;12.40;1.00;;;;;;10422599;28;20200;-85
2022/10/02 07:40:48;;;;;;;10.20;2.47;;;12.30;18.40;;;;;;10422240;28;20427;-85
2022/10/02 07:46:28;;;;;;;7.63;2.23;;;12.30;13.90;;;;;;10437936;28;20225;-85
2022/10/02 07:52:15;;;;;;;9.50;2.43;;;12.40;1.00;;;;;;10456265;28;20201;-85
2022/10/02 07:57:39;;;;;;;9.83;2.17;;;12.40;1.00;;;;;;10430444;28;20230;-85
2022/10/02 08:03:19;;;;;;;8.47;2.50;;;12.50;1.00;;;;;;10446735;28;20214;-85
2022/10/02 08:09:18;;;;;;;9.53;2.13;;;13.10;1.00;;;;;;10472880;28;20235;-85
2022/10/02 08:14:41;;;;;;;11.20;2.37;;;13.30;1.00;;;;;;10470963;28;20524;-86
2022/10/02 08:20:26;;;;;;;8.80;2.07;;;13.10;1.00;;;;;;10470497;28;20226;-85
2022/10/02 08:26:18;;;;;;;9.90;2.80;;;13.10;1.00;;;;;;10470207;28;20480;-85
2022/10/02 08:31:40;;;;;;;6.53;2.03;;;12.90;1.00;;;;;;10483573;28;20243;-85
2022/10/02 08:37:16;;;;;;;7.77;2.33;;;12.90;1.00;;;;;;10499786;28;20428;-86
2022/10/02 08:43:17;;;;;;;7.70;2.13;;;12.80;1.00;;;;;;10510430;28;20204;-85
2022/10/02 08:49:00;;;;;;;6.20;2.07;;;13.20;1.00;;;;;;10526253;28;20234;-87
2022/10/02 08:54:59;;;;;;;9.87;1.93;;;13.90;99.90;;;;;;10541251;28;20200;-86
2022/10/02 09:01:14;;;;;;;8.37;2.20;;;14.20;99.90;;;;;;10525314;28;20226;-83
2022/10/02 09:07:09;;;;;;;6.77;1.70;;;14.10;99.90;;;;;;10462336;28;20260;-86
2022/10/02 09:12:57;;;;;;;6.37;1.83;;;13.90;39.00;;;;;;10445556;28;20243;-87
2022/10/02 09:18:39;;;;;;;14.27;2.87;;;13.70;43.60;;;;;;10495067;28;20238;-86
2022/10/02 09:24:21;;;;;;;3.93;1.07;;;13.50;99.90;;;;;;10464017;28;20203;-84
2022/10/02 09:30:10;;;;;;;13.67;4.20;;;12.90;1.00;;;;;;10464730;28;20216;-87
2022/10/02 09:36:06;;;;;;;2.43;1.53;;;12.20;99.90;;;;;;10461350;28;20431;-85
2022/10/02 09:41:48;;;;;;;5.70;1.20;;;11.90;1.00;;;;;;10558090;27;20234;-84
2022/10/02 09:47:22;;;;;;;7.47;1.83;;;12.00;1.00;;;;;;10546329;28;20247;-87
2022/10/02 09:53:14;;;;;;;5.47;1.40;;;12.30;1.00;;;;;;10503477;28;20498;-86
2022/10/02 09:59:06;;;;;;;6.60;2.03;;;12.50;1.00;;;;;;10523599;28;20540;-87
2022/10/02 10:05:07;;;;;;;3.33;1.20;;;12.40;1.00;;;;;;10539282;28;20191;-85
2022/10/02 10:10:53;;;;;;;5.13;2.27;;;12.30;1.00;;;;;;10527175;28;20203;-85
2022/10/02 10:16:47;;;;;;;5.30;2.40;;;12.20;1.00;;;;;;10532424;28;20195;-88
2022/10/02 10:22:23;;;;;;;3.37;1.80;;;12.50;1.00;;;;;;10415332;28;20284;-84
2022/10/02 10:27:47;;;;;;;3.20;1.73;;;12.80;1.00;;;;;;10408712;28;20198;-88
2022/10/02 10:33:33;;;;;;;4.47;1.63;;;13.00;1.00;;;;;;10399718;28;20241;-88
2022/10/02 10:39:33;;;;;;;5.13;1.60;;;13.10;1.00;;;;;;10364545;28;20277;-89
2022/10/02 10:45:18;;;;;;;5.67;3.03;;;13.20;1.00;;;;;;10313347;28;20301;-87
2022/10/02 10:50:54;;;;;;;8.97;3.90;;;13.50;1.00;;;;;;10309792;28;20240;-84
2022/10/02 10:56:35;;;;;;;5.00;3.17;;;13.70;1.00;;;;;;10355790;28;20285;-85
2022/10/02 11:02:15;;;;;;;3.37;1.80;;;13.50;1.00;;;;;;10389426;28;20254;-85
2022/10/02 11:08:17;;;;;;;3.27;2.40;;;13.00;1.00;;;;;;10421265;28;20236;-84
2022/10/02 11:14:04;;;;;;;3.47;1.77;;;12.80;1.00;;;;;;10323476;28;20207;-87
2022/10/02 11:20:03;;;;;;;4.07;2.40;;;12.70;1.00;;;;;;10361215;28;20228;-88
2022/10/02 11:25:58;;;;;;;5.40;2.60;;;12.50;1.00;;;;;;10433078;28;20293;-85
2022/10/02 11:31:19;;;;;;;3.63;2.23;;;12.30;1.00;;;;;;10436707;28;20281;-84
2022/10/02 11:36:59;;;;;;;4.20;2.50;;;12.20;1.00;;;;;;10439293;28;20185;-83
2022/10/02 11:42:54;;;;;;;4.50;1.80;;;12.10;1.00;;;;;;10424977;28;20214;-83
2022/10/02 11:48:55;;;;;;;3.73;2.40;;;12.20;1.00;;;;;;10513675;28;20398;-85
2022/10/02 11:54:57;;;;;;;4.47;2.90;;;12.70;1.00;;;;;;10528419;28;20192;-84
2022/10/02 12:00:38;;;;;;;2.83;1.80;;;13.40;1.00;;;;;;10410509;28;20427;-84
2022/10/02 12:06:23;;;;;;;3.37;1.77;;;13.20;99.90;;;;;;10421054;28;20464;-84
2022/10/02 12:12:08;;;;;;;2.87;1.90;;;12.80;1.00;;;;;;10401531;28;20283;-84
2022/10/02 12:17:32;;;;;;;6.97;3.83;;;12.50;1.00;;;;;;10380790;28;20229;-93
2022/10/02 12:29:13;;;;;;;7.38;1.45;;;13.00;1.00;;;;;;10417266;28;20272;-85
2022/10/02 12:34:56;;;;;;;3.80;1.10;;;15.00;99.90;;;;;;10504630;28;20214;-85
2022/10/02 12:40:20;;;;;;;1.02;0.70;;;15.50;1.00;;;;;;10558075;28;20237;-84
2022/10/02 12:46:20;;;;;;;2.40;1.10;;;16.70;1.00;;;;;;10542427;28;20249;-85
2022/10/02 12:51:58;;;;;;;4.47;2.63;;;17.30;99.90;;;;;;10463451;28;20209;-84
2022/10/02 12:57:52;;;;;;;4.00;1.65;;;16.80;54.80;;;;;;10449174;28;20198;-85
2022/10/02 13:03:19;;;;;;;11.20;5.90;;;15.80;99.90;;;;;;10465169;28;20228;-83
2022/10/02 13:08:47;;;;;;;11.63;6.70;;;14.70;1.00;;;;;;10445693;28;20214;-85
2022/10/02 13:14:26;;;;;;;7.43;3.53;;;14.50;60.00;;;;;;10475969;28;20214;-82
2022/10/02 13:20:27;;;;;;;4.07;2.27;;;14.10;99.90;;;;;;10430968;28;20315;-84
2022/10/02 13:25:53;;;;;;;7.80;2.90;;;13.60;1.00;;;;;;10428982;28;20208;-83
2022/10/02 13:32:04;;;;;;;4.75;2.42;;;13.20;1.00;;;;;;10538782;28;20248;-83
2022/10/02 13:37:37;;;;;;;4.22;1.60;;;14.00;1.00;;;;;;10460787;28;20385;-82
2022/10/02 13:43:17;;;;;;;3.07;1.87;;;15.40;64.10;;;;;;10463333;28;20274;-83
2022/10/02 13:49:13;;;;;;;2.90;1.60;;;15.00;1.00;;;;;;10443269;28;20237;-84
2022/10/02 13:55:01;;;;;;;3.43;1.40;;;13.90;1.00;;;;;;10352173;28;20212;-84
2022/10/02 14:00:45;;;;;;;3.00;1.60;;;13.20;99.90;;;;;;10351261;28;20266;-84
2022/10/02 14:06:35;;;;;;;4.30;2.23;;;12.80;99.90;;;;;;10336460;28;20221;-83
2022/10/02 14:12:23;;;;;;;5.07;3.00;;;12.60;1.00;;;;;;10367266;28;20205;-84
2022/10/02 14:17:50;;;;;;;5.33;3.17;;;12.60;1.00;;;;;;10402164;28;20225;-84
2022/10/02 14:23:30;;;;;;;7.20;3.60;;;12.60;1.00;;;;;;10390476;28;20218;-86
2022/10/02 14:29:16;;;;;;;5.60;3.07;;;12.50;1.00;;;;;;10445827;28;20199;-87
2022/10/02 14:35:15;;;;;;;8.17;2.40;;;12.30;1.00;;;;;;10520757;28;20191;-88
2022/10/02 14:40:59;;;;;;;10.70;3.80;;;12.30;1.00;;;;;;10533243;28;20298;-85
2022/10/02 14:46:48;;;;;;;5.73;2.70;;;12.30;1.00;;;;;;10530642;28;20223;-90
2022/10/02 14:52:13;;;;;;;6.37;2.03;;;12.40;1.00;;;;;;10516750;28;20288;-87
2022/10/02 14:58:14;;;;;;;4.03;1.40;;;12.50;1.00;;;;;;10529534;28;20197;-85
2022/10/02 15:03:48;;;;;;;9.50;2.20;;;12.40;1.00;;;;;;10520589;28;20191;-91
2022/10/02 15:09:15;;;;;;;1.87;1.43;;;12.40;1.00;;;;;;10499839;28;20195;-92
2022/10/02 15:15:00;;;;;;;3.83;1.40;;;12.40;1.00;;;;;;10506966;28;20200;-88
2022/10/02 15:20:40;;;;;;;4.37;1.83;;;12.30;1.00;;;;;;10521320;28;20223;-93
2022/10/02 15:26:26;;;;;;;4.00;1.40;;;12.20;1.00;;;;;;10517929;28;20217;-89
2022/10/02 15:31:59;;;;;;;3.60;1.50;;;12.10;1.00;;;;;;10505868;28;20209;-87
2022/10/02 15:37:33;;;;;;;7.57;4.00;;;11.90;1.00;;;;;;10508380;28;20582;-91
2022/10/02 15:42:56;;;;;;;5.53;1.97;;;11.90;1.00;;;;;;10521130;28;20195;-93
2022/10/02 15:48:21;;;;;;;5.10;1.77;;;11.80;1.00;;;;;;10538665;28;20241;-85
2022/10/02 15:54:05;;;;;;;2.60;1.67;;;11.70;1.00;;;;;;10538192;28;20211;-90
2022/10/02 15:59:54;;;;;;;5.00;2.60;;;11.50;1.00;;;;;;10507936;28;20229;-89
2022/10/02 16:05:37;;;;;;;4.00;2.07;;;11.40;1.00;;;;;;10533938;28;20216;-91
2022/10/02 16:11:35;;;;;;;3.37;1.70;;;11.30;1.00;;;;;;10506041;28;20198;-90
2022/10/02 16:17:12;;;;;;;1.47;1.10;;;11.20;3.30;;;;;;10518936;28;20201;-92
2022/10/02 16:22:59;;;;;;;3.27;1.33;;;11.10;48.60;;;;;;10555489;28;20237;-87
2022/10/02 16:28:38;;;;;;;1.63;1.13;;;11.00;63.70;;;;;;10519419;28;20397;-90
2022/10/02 16:34:14;;;;;;;2.97;1.20;;;10.90;77.10;;;;;;10513279;28;20551;-90
2022/10/02 16:40:00;;;;;;;3.47;1.30;;;10.90;90.00;;;;;;10471301;28;20224;-90
2022/10/02 16:46:00;;;;;;;11.17;5.40;;;10.80;87.90;;;;;;10495460;28;20244;-89
2022/10/02 16:51:44;;;;;;;11.30;5.53;;;10.70;95.20;;;;;;10457456;22;20262;-90
2022/10/02 16:57:38;;;;;;;8.80;4.63;;;10.60;99.90;;;;;;10400854;28;20198;-88
2022/10/02 17:03:21;;;;;;;11.37;5.90;;;10.50;99.90;;;;;;10420709;28;20207;-89
2022/10/02 17:09:13;;;;;;;12.43;5.03;;;10.50;99.90;;;;;;10387885;28;20208;-89
2022/10/02 17:14:54;;;;;;;12.10;5.97;;;10.40;99.90;;;;;;10400966;28;20197;-89
2022/10/02 17:20:18;;;;;;;11.13;5.83;;;10.40;99.90;;;;;;10370964;28;20220;-87
2022/10/02 17:25:55;;;;;;;16.50;6.80;;;10.40;99.90;;;;;;10384057;28;20224;-88
2022/10/02 17:31:35;;;;;;;11.27;4.90;;;10.40;99.90;;;;;;10370635;28;20205;-88
2022/10/02 17:37:08;;;;;;;12.00;3.73;;;10.40;99.90;;;;;;10357710;28;20194;-88
2022/10/02 17:42:40;;;;;;;6.57;3.33;;;10.40;99.90;;;;;;10370169;28;20241;-88
2022/10/02 17:48:43;;;;;;;5.47;2.67;;;10.40;99.90;;;;;;10383297;28;20208;-88
2022/10/02 18:00:22;;;;;;;12.10;3.73;;;10.40;99.90;;;;;;10397016;28;20228;-89
2022/10/02 18:06:21;;;;;;;12.30;5.07;;;10.40;99.90;;;;;;10401385;28;20227;-88
2022/10/02 18:12:04;;;;;;;17.73;7.43;;;10.40;99.90;;;;;;10318848;28;20229;-89
2022/10/02 18:17:50;;;;;;;15.00;5.30;;;10.40;99.90;;;;;;10325194;28;20202;-89
2022/10/02 18:23:52;;;;;;;12.67;4.73;;;10.40;99.90;;;;;;10326450;28;20384;-88
2022/10/02 18:29:28;;;;;;;13.67;4.80;;;10.40;99.90;;;;;;10235584;29;20399;-88
2022/10/02 18:35:07;;;;;;;9.43;4.93;;;10.40;99.90;;;;;;10206912;29;20231;-89
2022/10/02 18:40:33;;;;;;;12.83;6.27;;;10.40;99.90;;;;;;10206051;29;20273;-88
2022/10/02 18:46:06;;;;;;;9.17;4.60;;;10.30;99.90;;;;;;10222855;29;20210;-87
2022/10/02 18:51:45;;;;;;;10.97;4.53;;;10.30;99.90;;;;;;10192908;29;20250;-89
2022/10/02 18:57:06;;;;;;;12.43;3.83;;;10.30;99.90;;;;;;10153840;29;20219;-89
2022/10/02 19:02:34;;;;;;;9.23;3.30;;;10.30;99.90;;;;;;10225695;28;20237;-88
2022/10/02 19:08:01;;;;;;;13.93;3.80;;;10.30;99.90;;;;;;10392145;28;20190;-89
2022/10/02 19:13:28;;;;;;;10.93;2.17;;;10.40;99.90;;;;;;10353325;28;20207;-88
2022/10/02 19:19:08;;;;;;;14.67;3.03;;;10.40;99.90;;;;;;10352467;28;20218;-89
2022/10/02 19:24:36;;;;;;;9.43;3.17;;;10.50;99.90;;;;;;10366518;28;20231;-88
2022/10/02 19:30:20;;;;;;;9.50;2.67;;;10.50;99.90;;;;;;10383415;28;20203;-89
2022/10/02 19:35:43;;;;;;;7.87;2.30;;;10.50;99.90;;;;;;10368276;28;20212;-89
2022/10/02 19:41:09;;;;;;;11.97;2.63;;;10.50;99.90;;;;;;10382871;28;20233;-90
2022/10/02 19:46:39;;;;;;;11.03;2.00;;;10.50;99.90;;;;;;10386510;28;20196;-88
2022/10/02 19:52:00;;;;;;;12.10;2.43;;;10.50;99.90;;;;;;10390502;28;20255;-88
2022/10/02 19:57:27;;;;;;;15.37;3.33;;;10.40;99.90;;;;;;10404165;28;20195;-89
2022/10/02 20:02:55;;;;;;;4.83;1.67;;;10.50;99.90;;;;;;10376741;28;20285;-89
2022/10/02 20:08:23;;;;;;;10.80;2.03;;;10.50;99.90;;;;;;10371888;28;20187;-88
2022/10/02 20:14:08;;;;;;;7.37;2.30;;;10.40;99.90;;;;;;10359852;28;20498;-88
2022/10/02 20:19:44;;;;;;;12.70;2.33;;;10.50;99.90;;;;;;10373069;28;20232;-89
2022/10/02 20:25:50;;;;;;;9.03;2.10;;;10.60;99.90;;;;;;10397436;28;20197;-88
2022/10/02 20:31:28;;;;;;;5.23;1.63;;;10.50;99.90;;;;;;10362934;28;20225;-89
2022/10/02 20:37:04;;;;;;;11.60;2.23;;;10.50;99.90;;;;;;10388736;28;20235;-89
2022/10/02 20:42:48;;;;;;;8.00;2.03;;;10.50;99.90;;;;;;10374130;28;20223;-88
2022/10/02 20:48:32;;;;;;;7.60;1.80;;;10.40;99.90;;;;;;10383654;28;20224;-89
2022/10/02 20:54:15;;;;;;;6.77;1.47;;;10.40;99.90;;;;;;10378775;28;20243;-88
2022/10/02 21:00:18;;;;;;;6.20;1.50;;;10.40;99.90;;;;;;10393788;28;20226;-89
2022/10/02 21:05:54;;;;;;;7.73;1.97;;;10.40;99.90;;;;;;10397099;28;20198;-89
2022/10/02 21:11:39;;;;;;;4.10;1.17;;;10.40;99.90;;;;;;10363361;28;20207;-89
2022/10/02 21:17:21;;;;;;;5.50;1.63;;;10.50;99.90;;;;;;10392539;28;20194;-89
2022/10/02 21:23:00;;;;;;;8.07;2.20;;;10.50;99.90;;;;;;10407907;28;20265;-88
2022/10/02 21:28:47;;;;;;;6.13;1.30;;;10.60;99.90;;;;;;10377733;28;20267;-89
2022/10/02 21:34:37;;;;;;;3.53;1.30;;;10.60;99.90;;;;;;10410714;28;20417;-88
2022/10/02 21:40:47;;;;;;;12.73;1.97;;;10.60;99.90;;;;;;10406164;28;20239;-89
2022/10/02 21:46:23;;;;;;;7.10;1.50;;;10.60;99.90;;;;;;10265482;28;20552;-89
2022/10/02 21:51:59;;;;;;;5.80;1.43;;;10.50;99.90;;;;;;10229228;29;20314;-89
2022/10/02 21:57:54;;;;;;;5.23;1.23;;;10.50;99.90;;;;;;10228200;29;20286;-89
2022/10/02 22:03:30;;;;;;;7.20;1.27;;;10.50;99.90;;;;;;10243564;29;20245;-89
2022/10/02 22:09:18;;;;;;;3.87;1.30;;;10.60;99.90;;;;;;10226649;29;20231;-88
2022/10/02 22:15:03;;;;;;;4.80;1.20;;;10.50;99.90;;;;;;10222214;29;20536;-88
2022/10/02 22:20:56;;;;;;;6.93;1.30;;;10.50;99.90;;;;;;10273237;28;20231;-88
2022/10/02 22:26:42;;;;;;;3.50;1.07;;;10.50;99.90;;;;;;10381720;28;20397;-89
2022/10/02 22:38:06;;;;;;;4.47;1.40;;;10.60;99.90;;;;;;10397826;28;20222;-89
2022/10/02 22:43:53;;;;;;;8.87;1.77;;;10.70;99.90;;;;;;10353992;28;20224;-89
2022/10/02 22:49:35;;;;;;;6.83;1.97;;;10.70;99.90;;;;;;10367165;28;20224;-89
2022/10/02 22:55:18;;;;;;;4.40;1.40;;;10.70;99.90;;;;;;10367328;28;20440;-89
2022/10/02 23:01:06;;;;;;;5.80;1.33;;;10.70;99.90;;;;;;10356437;28;20234;-89
2022/10/02 23:06:53;;;;;;;5.57;1.30;;;10.70;99.90;;;;;;10355876;28;20202;-89
2022/10/02 23:12:30;;;;;;;4.20;1.60;;;10.70;99.90;;;;;;10362876;28;20247;-89
2022/10/02 23:18:01;;;;;;;5.23;1.50;;;10.70;99.90;;;;;;10379890;28;20196;-89
2022/10/02 23:23:42;;;;;;;6.03;1.50;;;10.80;99.90;;;;;;10393206;28;20238;-89
2022/10/02 23:29:55;;;;;;;4.43;1.30;;;10.80;99.90;;;;;;10379827;28;20205;-89
2022/10/02 23:35:25;;;;;;;9.33;1.83;;;10.80;99.90;;;;;;10323154;28;20574;-90
2022/10/02 23:46:50;;;;;;;5.20;1.50;;;10.90;99.90;;;;;;10308731;28;20245;-88
2022/10/02 23:52:41;;;;;;;6.67;1.73;;;10.90;99.90;;;;;;10296407;28;20304;-89
2022/10/02 23:58:11;;;;;;;7.27;1.70;;;10.90;99.90;;;;;;10242929;29;20208;-88
